sensor_id;sensor_type;location;lat;lon;timestamp;temperature;humidity
75010;DHT22;63564;46.840;18.336;2023-09-18T00:02:29;19.49;83.30
75010;DHT22;63564;46.840;18.336;2023-09-18T00:05:31;19.41;83.40
75010;DHT22;63564;46.840;18.336;2023-09-18T00:08:31;19.26;84.04
75010;DHT22;63564;46.840;18.336;2023-09-18T00:11:32;19.26;83.75
75010;DHT22;63564;46.840;18.336;2023-09-18T00:14:32;19.24;83.67
75010;DHT22;63564;46.840;18.336;2023-09-18T00:17:33;19.22;83.95
75010;DHT22;63564;46.840;18.336;2023-09-18T00:20:33;19.10;84.48
75010;DHT22;63564;46.840;18.336;2023-09-18T00:23:33;19.10;84.33
75010;DHT22;63564;46.840;18.336;2023-09-18T00:26:35;19.06;84.54
75010;DHT22;63564;46.840;18.336;2023-09-18T00:29:35;18.92;85.27
75010;DHT22;63564;46.840;18.336;2023-09-18T00:32:36;18.94;84.77
75010;DHT22;63564;46.840;18.336;2023-09-18T00:35:36;18.76;85.65
75010;DHT22;63564;46.840;18.336;2023-09-18T00:38:36;18.73;85.66
75010;DHT22;63564;46.840;18.336;2023-09-18T00:41:37;18.73;85.66
75010;DHT22;63564;46.840;18.336;2023-09-18T00:44:38;18.82;85.25
75010;DHT22;63564;46.840;18.336;2023-09-18T00:47:38;18.79;85.33
75010;DHT22;63564;46.840;18.336;2023-09-18T00:50:39;18.82;85.01
75010;DHT22;63564;46.840;18.336;2023-09-18T00:53:43;18.75;85.34
75010;DHT22;63564;46.840;18.336;2023-09-18T00:56:46;18.72;85.54
75010;DHT22;63564;46.840;18.336;2023-09-18T00:59:48;18.69;85.78
75010;DHT22;63564;46.840;18.336;2023-09-18T01:02:48;18.68;85.97
75010;DHT22;63564;46.840;18.336;2023-09-18T01:05:49;18.65;85.99
75010;DHT22;63564;46.840;18.336;2023-09-18T01:08:50;18.61;86.06
75010;DHT22;63564;46.840;18.336;2023-09-18T01:15:09;18.45;86.63
75010;DHT22;63564;46.840;18.336;2023-09-18T01:18:10;18.37;86.72
75010;DHT22;63564;46.840;18.336;2023-09-18T01:21:10;18.34;86.93
75010;DHT22;63564;46.840;18.336;2023-09-18T01:24:11;18.34;87.12
75010;DHT22;63564;46.840;18.336;2023-09-18T01:27:12;18.34;87.00
75010;DHT22;63564;46.840;18.336;2023-09-18T01:30:13;18.43;86.68
75010;DHT22;63564;46.840;18.336;2023-09-18T01:33:15;18.41;86.84
75010;DHT22;63564;46.840;18.336;2023-09-18T01:36:18;18.23;87.24
75010;DHT22;63564;46.840;18.336;2023-09-18T01:39:20;18.05;87.47
75010;DHT22;63564;46.840;18.336;2023-09-18T01:42:21;17.89;87.84
75010;DHT22;63564;46.840;18.336;2023-09-18T01:45:22;17.75;88.03
75010;DHT22;63564;46.840;18.336;2023-09-18T01:48:22;17.74;88.13
75010;DHT22;63564;46.840;18.336;2023-09-18T01:51:23;17.71;88.43
75010;DHT22;63564;46.840;18.336;2023-09-18T01:54:24;17.64;88.77
75010;DHT22;63564;46.840;18.336;2023-09-18T01:57:25;17.68;88.98
75010;DHT22;63564;46.840;18.336;2023-09-18T02:00:26;17.65;89.03
75010;DHT22;63564;46.840;18.336;2023-09-18T02:03:26;17.61;89.36
75010;DHT22;63564;46.840;18.336;2023-09-18T02:06:26;17.52;89.76
75010;DHT22;63564;46.840;18.336;2023-09-18T02:09:27;17.48;89.82
75010;DHT22;63564;46.840;18.336;2023-09-18T02:12:27;17.57;89.76
75010;DHT22;63564;46.840;18.336;2023-09-18T02:15:27;17.49;89.64
75010;DHT22;63564;46.840;18.336;2023-09-18T02:18:32;17.32;89.77
75010;DHT22;63564;46.840;18.336;2023-09-18T02:21:33;17.23;89.68
75010;DHT22;63564;46.840;18.336;2023-09-18T02:24:33;17.20;89.25
75010;DHT22;63564;46.840;18.336;2023-09-18T02:27:34;17.11;89.91
75010;DHT22;63564;46.840;18.336;2023-09-18T02:30:34;17.09;90.23
75010;DHT22;63564;46.840;18.336;2023-09-18T02:33:35;17.19;89.44
75010;DHT22;63564;46.840;18.336;2023-09-18T02:36:35;17.20;89.22
75010;DHT22;63564;46.840;18.336;2023-09-18T02:39:36;16.97;89.59
75010;DHT22;63564;46.840;18.336;2023-09-18T02:42:36;16.97;89.44
75010;DHT22;63564;46.840;18.336;2023-09-18T02:45:37;16.97;89.32
75010;DHT22;63564;46.840;18.336;2023-09-18T02:48:37;16.97;89.42
75010;DHT22;63564;46.840;18.336;2023-09-18T02:51:37;16.83;89.78
75010;DHT22;63564;46.840;18.336;2023-09-18T02:54:38;16.79;89.86
75010;DHT22;63564;46.840;18.336;2023-09-18T02:57:38;16.71;90.22
75010;DHT22;63564;46.840;18.336;2023-09-18T03:00:49;16.61;90.42
75010;DHT22;63564;46.840;18.336;2023-09-18T03:03:50;16.61;90.53
75010;DHT22;63564;46.840;18.336;2023-09-18T03:06:50;16.38;91.28
75010;DHT22;63564;46.840;18.336;2023-09-18T03:09:51;16.25;91.93
75010;DHT22;63564;46.840;18.336;2023-09-18T03:12:51;16.13;91.91
75010;DHT22;63564;46.840;18.336;2023-09-18T03:15:51;16.18;91.29
75010;DHT22;63564;46.840;18.336;2023-09-18T03:18:52;16.18;91.41
75010;DHT22;63564;46.840;18.336;2023-09-18T03:21:52;16.03;92.29
75010;DHT22;63564;46.840;18.336;2023-09-18T03:24:52;15.93;92.72
75010;DHT22;63564;46.840;18.336;2023-09-18T03:27:55;15.89;92.83
75010;DHT22;63564;46.840;18.336;2023-09-18T03:30:55;15.87;92.81
75010;DHT22;63564;46.840;18.336;2023-09-18T03:33:56;15.85;93.29
75010;DHT22;63564;46.840;18.336;2023-09-18T03:36:56;15.93;93.09
75010;DHT22;63564;46.840;18.336;2023-09-18T03:39:57;15.97;92.29
75010;DHT22;63564;46.840;18.336;2023-09-18T03:42:57;15.96;92.24
75010;DHT22;63564;46.840;18.336;2023-09-18T03:46:05;16.04;91.92
75010;DHT22;63564;46.840;18.336;2023-09-18T03:49:05;16.00;92.55
75010;DHT22;63564;46.840;18.336;2023-09-18T03:52:06;16.16;92.50
75010;DHT22;63564;46.840;18.336;2023-09-18T03:55:07;16.13;91.77
75010;DHT22;63564;46.840;18.336;2023-09-18T03:58:08;16.14;92.21
75010;DHT22;63564;46.840;18.336;2023-09-18T04:01:08;16.16;92.05
75010;DHT22;63564;46.840;18.336;2023-09-18T04:04:09;16.04;91.85
75010;DHT22;63564;46.840;18.336;2023-09-18T04:07:09;16.08;91.89
75010;DHT22;63564;46.840;18.336;2023-09-18T04:10:10;16.04;92.12
75010;DHT22;63564;46.840;18.336;2023-09-18T04:13:15;15.78;92.74
75010;DHT22;63564;46.840;18.336;2023-09-18T04:16:16;15.93;92.94
75010;DHT22;63564;46.840;18.336;2023-09-18T04:19:17;16.03;92.07
75010;DHT22;63564;46.840;18.336;2023-09-18T04:22:18;15.67;92.57
75010;DHT22;63564;46.840;18.336;2023-09-18T04:25:18;15.59;92.82
75010;DHT22;63564;46.840;18.336;2023-09-18T04:28:22;15.78;92.60
75010;DHT22;63564;46.840;18.336;2023-09-18T04:31:23;15.89;91.70
75010;DHT22;63564;46.840;18.336;2023-09-18T04:34:23;16.11;90.96
75010;DHT22;63564;46.840;18.336;2023-09-18T04:37:24;16.07;90.58
75010;DHT22;63564;46.840;18.336;2023-09-18T04:40:25;16.06;90.76
75010;DHT22;63564;46.840;18.336;2023-09-18T04:43:26;16.01;91.00
75010;DHT22;63564;46.840;18.336;2023-09-18T04:46:29;15.94;91.28
75010;DHT22;63564;46.840;18.336;2023-09-18T04:49:30;15.80;91.95
75010;DHT22;63564;46.840;18.336;2023-09-18T04:52:30;15.83;92.01
75010;DHT22;63564;46.840;18.336;2023-09-18T04:55:31;15.85;91.96
75010;DHT22;63564;46.840;18.336;2023-09-18T04:58:32;16.06;91.32
75010;DHT22;63564;46.840;18.336;2023-09-18T05:01:32;16.29;91.16
75010;DHT22;63564;46.840;18.336;2023-09-18T05:04:32;16.06;91.01
75010;DHT22;63564;46.840;18.336;2023-09-18T05:07:33;16.14;91.96
75010;DHT22;63564;46.840;18.336;2023-09-18T05:10:34;16.11;91.30
75010;DHT22;63564;46.840;18.336;2023-09-18T05:13:34;16.11;91.91
75010;DHT22;63564;46.840;18.336;2023-09-18T05:16:35;16.16;91.94
75010;DHT22;63564;46.840;18.336;2023-09-18T05:19:35;16.71;91.70
75010;DHT22;63564;46.840;18.336;2023-09-18T05:22:35;16.86;89.77
75010;DHT22;63564;46.840;18.336;2023-09-18T05:25:36;17.04;90.64
75010;DHT22;63564;46.840;18.336;2023-09-18T05:28:38;17.00;90.15
75010;DHT22;63564;46.840;18.336;2023-09-18T05:31:39;17.10;91.12
75010;DHT22;63564;46.840;18.336;2023-09-18T05:34:39;17.02;90.96
75010;DHT22;63564;46.840;18.336;2023-09-18T05:37:43;17.28;90.61
75010;DHT22;63564;46.840;18.336;2023-09-18T05:40:44;17.58;89.69
75010;DHT22;63564;46.840;18.336;2023-09-18T05:43:45;17.74;88.60
75010;DHT22;63564;46.840;18.336;2023-09-18T05:46:45;17.69;88.72
75010;DHT22;63564;46.840;18.336;2023-09-18T05:49:46;17.57;89.04
75010;DHT22;63564;46.840;18.336;2023-09-18T05:52:47;17.76;88.98
75010;DHT22;63564;46.840;18.336;2023-09-18T05:55:48;18.27;88.08
75010;DHT22;63564;46.840;18.336;2023-09-18T05:58:49;18.36;87.59
75010;DHT22;63564;46.840;18.336;2023-09-18T06:01:49;18.51;85.80
75010;DHT22;63564;46.840;18.336;2023-09-18T06:04:58;18.50;86.23
75010;DHT22;63564;46.840;18.336;2023-09-18T06:08:00;18.85;85.50
75010;DHT22;63564;46.840;18.336;2023-09-18T06:11:00;18.79;85.13
75010;DHT22;63564;46.840;18.336;2023-09-18T06:17:20;19.09;84.33
75010;DHT22;63564;46.840;18.336;2023-09-18T06:20:20;19.33;84.71
75010;DHT22;63564;46.840;18.336;2023-09-18T06:23:22;19.58;83.61
75010;DHT22;63564;46.840;18.336;2023-09-18T06:26:22;19.64;83.32
75010;DHT22;63564;46.840;18.336;2023-09-18T06:29:23;19.58;82.38
75010;DHT22;63564;46.840;18.336;2023-09-18T06:32:23;19.64;82.37
75010;DHT22;63564;46.840;18.336;2023-09-18T06:35:24;20.13;82.11
75010;DHT22;63564;46.840;18.336;2023-09-18T06:38:24;20.32;80.83
75010;DHT22;63564;46.840;18.336;2023-09-18T06:41:24;20.32;80.91
75010;DHT22;63564;46.840;18.336;2023-09-18T06:44:25;20.44;81.26
75010;DHT22;63564;46.840;18.336;2023-09-18T06:47:26;20.40;80.08
75010;DHT22;63564;46.840;18.336;2023-09-18T06:50:26;20.67;79.53
75010;DHT22;63564;46.840;18.336;2023-09-18T06:53:26;20.78;79.20
75010;DHT22;63564;46.840;18.336;2023-09-18T06:56:30;21.05;79.27
75010;DHT22;63564;46.840;18.336;2023-09-18T06:59:30;21.32;78.10
75010;DHT22;63564;46.840;18.336;2023-09-18T07:02:32;22.20;75.14
75010;DHT22;63564;46.840;18.336;2023-09-18T07:05:32;22.04;75.92
75010;DHT22;63564;46.840;18.336;2023-09-18T07:08:33;22.45;73.99
75010;DHT22;63564;46.840;18.336;2023-09-18T07:11:34;22.90;72.52
75010;DHT22;63564;46.840;18.336;2023-09-18T07:14:34;22.97;72.12
75010;DHT22;63564;46.840;18.336;2023-09-18T07:17:34;22.39;73.68
75010;DHT22;63564;46.840;18.336;2023-09-18T07:20:35;23.30;72.66
75010;DHT22;63564;46.840;18.336;2023-09-18T07:23:36;23.35;73.02
75010;DHT22;63564;46.840;18.336;2023-09-18T07:26:37;23.52;72.03
75010;DHT22;63564;46.840;18.336;2023-09-18T07:29:37;23.66;72.28
75010;DHT22;63564;46.840;18.336;2023-09-18T07:32:39;23.45;71.37
75010;DHT22;63564;46.840;18.336;2023-09-18T07:35:40;23.34;70.99
75010;DHT22;63564;46.840;18.336;2023-09-18T07:38:40;22.99;72.36
75010;DHT22;63564;46.840;18.336;2023-09-18T07:41:43;23.11;72.94
75010;DHT22;63564;46.840;18.336;2023-09-18T07:44:43;24.13;70.42
75010;DHT22;63564;46.840;18.336;2023-09-18T07:47:44;24.36;68.82
75010;DHT22;63564;46.840;18.336;2023-09-18T07:50:44;24.37;69.11
75010;DHT22;63564;46.840;18.336;2023-09-18T07:53:44;24.47;68.66
75010;DHT22;63564;46.840;18.336;2023-09-18T07:56:45;24.50;68.30
75010;DHT22;63564;46.840;18.336;2023-09-18T07:59:46;24.53;67.60
75010;DHT22;63564;46.840;18.336;2023-09-18T08:02:46;24.68;66.96
75010;DHT22;63564;46.840;18.336;2023-09-18T08:05:50;24.64;67.01
75010;DHT22;63564;46.840;18.336;2023-09-18T08:08:52;24.78;66.79
75010;DHT22;63564;46.840;18.336;2023-09-18T08:11:53;24.95;66.39
75010;DHT22;63564;46.840;18.336;2023-09-18T08:14:55;25.23;65.82
75010;DHT22;63564;46.840;18.336;2023-09-18T08:17:59;25.33;65.61
75010;DHT22;63564;46.840;18.336;2023-09-18T08:20:59;25.33;66.20
75010;DHT22;63564;46.840;18.336;2023-09-18T08:24:00;25.18;67.29
75010;DHT22;63564;46.840;18.336;2023-09-18T08:27:00;25.60;65.86
75010;DHT22;63564;46.840;18.336;2023-09-18T08:30:01;25.66;64.84
75010;DHT22;63564;46.840;18.336;2023-09-18T08:33:02;25.85;64.19
75010;DHT22;63564;46.840;18.336;2023-09-18T08:36:03;26.12;64.17
75010;DHT22;63564;46.840;18.336;2023-09-18T08:39:04;26.08;63.66
75010;DHT22;63564;46.840;18.336;2023-09-18T08:42:07;25.99;64.61
75010;DHT22;63564;46.840;18.336;2023-09-18T08:45:10;26.15;63.32
75010;DHT22;63564;46.840;18.336;2023-09-18T08:48:11;26.04;63.56
75010;DHT22;63564;46.840;18.336;2023-09-18T08:51:12;26.21;63.51
75010;DHT22;63564;46.840;18.336;2023-09-18T08:54:13;26.37;62.49
75010;DHT22;63564;46.840;18.336;2023-09-18T08:57:14;26.43;62.16
75010;DHT22;63564;46.840;18.336;2023-09-18T09:00:15;26.40;62.03
75010;DHT22;63564;46.840;18.336;2023-09-18T09:03:18;26.57;62.84
75010;DHT22;63564;46.840;18.336;2023-09-18T09:06:19;26.65;62.16
75010;DHT22;63564;46.840;18.336;2023-09-18T09:09:19;26.76;61.44
75010;DHT22;63564;46.840;18.336;2023-09-18T09:13:00;26.70;61.01
75010;DHT22;63564;46.840;18.336;2023-09-18T09:16:00;26.92;61.35
75010;DHT22;63564;46.840;18.336;2023-09-18T09:19:01;27.02;61.30
75010;DHT22;63564;46.840;18.336;2023-09-18T09:22:02;27.08;60.69
75010;DHT22;63564;46.840;18.336;2023-09-18T09:25:02;27.11;59.79
75010;DHT22;63564;46.840;18.336;2023-09-18T09:28:05;27.25;59.88
75010;DHT22;63564;46.840;18.336;2023-09-18T09:31:06;27.43;59.50
75010;DHT22;63564;46.840;18.336;2023-09-18T09:34:07;27.26;59.35
75010;DHT22;63564;46.840;18.336;2023-09-18T09:37:09;27.35;59.26
75010;DHT22;63564;46.840;18.336;2023-09-18T09:40:12;27.50;58.34
75010;DHT22;63564;46.840;18.336;2023-09-18T09:43:14;27.47;58.64
75010;DHT22;63564;46.840;18.336;2023-09-18T09:46:17;27.57;57.92
75010;DHT22;63564;46.840;18.336;2023-09-18T09:49:18;27.56;58.04
75010;DHT22;63564;46.840;18.336;2023-09-18T09:52:23;27.46;58.21
75010;DHT22;63564;46.840;18.336;2023-09-18T09:55:29;27.53;57.86
75010;DHT22;63564;46.840;18.336;2023-09-18T09:58:30;27.62;58.69
75010;DHT22;63564;46.840;18.336;2023-09-18T10:01:31;27.66;58.01
75010;DHT22;63564;46.840;18.336;2023-09-18T10:04:32;27.74;57.15
75010;DHT22;63564;46.840;18.336;2023-09-18T10:07:35;27.86;57.26
75010;DHT22;63564;46.840;18.336;2023-09-18T10:10:47;27.89;57.17
75010;DHT22;63564;46.840;18.336;2023-09-18T10:13:58;27.93;57.03
75010;DHT22;63564;46.840;18.336;2023-09-18T10:17:08;28.02;57.05
75010;DHT22;63564;46.840;18.336;2023-09-18T10:20:16;28.18;57.21
75010;DHT22;63564;46.840;18.336;2023-09-18T10:23:46;28.25;56.63
75010;DHT22;63564;46.840;18.336;2023-09-18T10:27:01;28.39;56.91
75010;DHT22;63564;46.840;18.336;2023-09-18T10:30:05;28.37;56.32
75010;DHT22;63564;46.840;18.336;2023-09-18T10:33:12;28.34;56.04
75010;DHT22;63564;46.840;18.336;2023-09-18T10:36:13;28.14;55.72
75010;DHT22;63564;46.840;18.336;2023-09-18T10:39:14;28.14;55.90
75010;DHT22;63564;46.840;18.336;2023-09-18T10:42:21;28.22;55.90
75010;DHT22;63564;46.840;18.336;2023-09-18T10:45:22;28.25;55.63
75010;DHT22;63564;46.840;18.336;2023-09-18T10:48:23;28.39;55.49
75010;DHT22;63564;46.840;18.336;2023-09-18T10:51:24;28.51;54.61
75010;DHT22;63564;46.840;18.336;2023-09-18T10:54:29;28.47;54.95
75010;DHT22;63564;46.840;18.336;2023-09-18T10:57:33;28.44;54.52
75010;DHT22;63564;46.840;18.336;2023-09-18T11:00:35;28.41;55.23
75010;DHT22;63564;46.840;18.336;2023-09-18T11:03:38;28.63;54.67
75010;DHT22;63564;46.840;18.336;2023-09-18T11:09:54;28.89;53.81
75010;DHT22;63564;46.840;18.336;2023-09-18T11:13:05;28.56;54.41
75010;DHT22;63564;46.840;18.336;2023-09-18T11:19:20;28.76;53.74
75010;DHT22;63564;46.840;18.336;2023-09-18T11:22:21;29.34;52.84
75010;DHT22;63564;46.840;18.336;2023-09-18T11:28:34;29.58;52.25
75010;DHT22;63564;46.840;18.336;2023-09-18T11:31:51;29.38;52.29
75010;DHT22;63564;46.840;18.336;2023-09-18T11:35:06;29.39;52.55
75010;DHT22;63564;46.840;18.336;2023-09-18T11:38:10;29.47;51.40
75010;DHT22;63564;46.840;18.336;2023-09-18T11:41:21;29.18;52.06
75010;DHT22;63564;46.840;18.336;2023-09-18T11:47:29;29.13;52.49
75010;DHT22;63564;46.840;18.336;2023-09-18T11:50:30;29.25;51.66
75010;DHT22;63564;46.840;18.336;2023-09-18T11:53:34;29.02;52.44
75010;DHT22;63564;46.840;18.336;2023-09-18T11:56:35;29.24;52.60
75010;DHT22;63564;46.840;18.336;2023-09-18T11:59:40;29.17;52.03
75010;DHT22;63564;46.840;18.336;2023-09-18T12:02:42;29.30;52.01
75010;DHT22;63564;46.840;18.336;2023-09-18T12:05:47;29.32;51.76
75010;DHT22;63564;46.840;18.336;2023-09-18T12:08:51;29.14;51.74
75010;DHT22;63564;46.840;18.336;2023-09-18T12:11:52;29.37;51.55
75010;DHT22;63564;46.840;18.336;2023-09-18T12:14:54;29.32;53.53
75010;DHT22;63564;46.840;18.336;2023-09-18T12:18:05;29.14;53.77
75010;DHT22;63564;46.840;18.336;2023-09-18T12:21:06;29.32;51.18
75010;DHT22;63564;46.840;18.336;2023-09-18T12:24:13;29.65;50.68
75010;DHT22;63564;46.840;18.336;2023-09-18T12:27:14;29.18;50.81
75010;DHT22;63564;46.840;18.336;2023-09-18T12:30:15;29.31;50.59
75010;DHT22;63564;46.840;18.336;2023-09-18T12:33:20;29.61;50.70
75010;DHT22;63564;46.840;18.336;2023-09-18T12:36:21;28.82;51.73
75010;DHT22;63564;46.840;18.336;2023-09-18T12:39:21;29.04;51.21
75010;DHT22;63564;46.840;18.336;2023-09-18T12:42:22;29.52;49.94
75010;DHT22;63564;46.840;18.336;2023-09-18T12:45:23;29.80;49.94
75010;DHT22;63564;46.840;18.336;2023-09-18T12:48:25;29.66;50.63
75010;DHT22;63564;46.840;18.336;2023-09-18T12:51:30;29.39;50.41
75010;DHT22;63564;46.840;18.336;2023-09-18T12:54:38;30.03;49.77
75010;DHT22;63564;46.840;18.336;2023-09-18T12:57:39;30.06;50.10
75010;DHT22;63564;46.840;18.336;2023-09-18T13:00:47;30.44;49.17
75010;DHT22;63564;46.840;18.336;2023-09-18T13:03:49;30.51;48.96
75010;DHT22;63564;46.840;18.336;2023-09-18T13:07:10;30.40;49.09
75010;DHT22;63564;46.840;18.336;2023-09-18T13:10:11;30.76;47.99
75010;DHT22;63564;46.840;18.336;2023-09-18T13:13:18;30.65;48.18
75010;DHT22;63564;46.840;18.336;2023-09-18T13:16:21;30.45;48.58
75010;DHT22;63564;46.840;18.336;2023-09-18T13:19:22;30.21;48.96
75010;DHT22;63564;46.840;18.336;2023-09-18T13:22:25;30.23;48.51
75010;DHT22;63564;46.840;18.336;2023-09-18T13:25:29;30.51;48.18
75010;DHT22;63564;46.840;18.336;2023-09-18T13:28:30;30.48;48.48
75010;DHT22;63564;46.840;18.336;2023-09-18T13:31:32;30.30;48.44
75010;DHT22;63564;46.840;18.336;2023-09-18T13:34:33;30.57;47.72
75010;DHT22;63564;46.840;18.336;2023-09-18T13:37:34;30.55;47.42
75010;DHT22;63564;46.840;18.336;2023-09-18T13:40:35;30.58;47.66
75010;DHT22;63564;46.840;18.336;2023-09-18T13:43:38;30.28;47.59
75010;DHT22;63564;46.840;18.336;2023-09-18T13:46:39;30.51;47.70
75010;DHT22;63564;46.840;18.336;2023-09-18T13:49:39;30.93;46.51
75010;DHT22;63564;46.840;18.336;2023-09-18T13:52:39;31.27;45.89
75010;DHT22;63564;46.840;18.336;2023-09-18T13:55:40;31.51;45.29
75010;DHT22;63564;46.840;18.336;2023-09-18T13:58:41;31.81;44.73
75010;DHT22;63564;46.840;18.336;2023-09-18T14:01:41;32.57;43.65
75010;DHT22;63564;46.840;18.336;2023-09-18T14:04:42;32.64;43.26
75010;DHT22;63564;46.840;18.336;2023-09-18T14:07:43;32.96;42.85
75010;DHT22;63564;46.840;18.336;2023-09-18T14:10:44;32.81;42.43
75010;DHT22;63564;46.840;18.336;2023-09-18T14:13:44;32.76;43.00
75010;DHT22;63564;46.840;18.336;2023-09-18T14:16:45;31.73;44.33
75010;DHT22;63564;46.840;18.336;2023-09-18T14:19:45;31.70;44.43
75010;DHT22;63564;46.840;18.336;2023-09-18T14:22:47;31.50;44.85
75010;DHT22;63564;46.840;18.336;2023-09-18T14:25:49;31.36;44.96
75010;DHT22;63564;46.840;18.336;2023-09-18T14:28:51;30.88;45.85
75010;DHT22;63564;46.840;18.336;2023-09-18T14:31:52;31.10;45.48
75010;DHT22;63564;46.840;18.336;2023-09-18T14:34:53;30.28;47.10
75010;DHT22;63564;46.840;18.336;2023-09-18T14:37:54;30.09;48.01
75010;DHT22;63564;46.840;18.336;2023-09-18T14:40:56;30.34;47.63
75010;DHT22;63564;46.840;18.336;2023-09-18T14:44:07;30.34;46.75
75010;DHT22;63564;46.840;18.336;2023-09-18T14:47:11;29.72;48.42
75010;DHT22;63564;46.840;18.336;2023-09-18T14:50:12;29.79;48.91
75010;DHT22;63564;46.840;18.336;2023-09-18T14:53:13;29.69;48.56
75010;DHT22;63564;46.840;18.336;2023-09-18T14:56:14;29.44;49.16
75010;DHT22;63564;46.840;18.336;2023-09-18T14:59:15;29.20;50.05
75010;DHT22;63564;46.840;18.336;2023-09-18T15:02:15;29.04;50.02
75010;DHT22;63564;46.840;18.336;2023-09-18T15:05:18;29.32;50.08
75010;DHT22;63564;46.840;18.336;2023-09-18T15:08:19;29.13;50.41
75010;DHT22;63564;46.840;18.336;2023-09-18T15:11:20;28.84;50.75
75010;DHT22;63564;46.840;18.336;2023-09-18T15:14:20;28.89;50.55
75010;DHT22;63564;46.840;18.336;2023-09-18T15:17:21;28.84;50.92
75010;DHT22;63564;46.840;18.336;2023-09-18T15:20:22;28.65;53.28
75010;DHT22;63564;46.840;18.336;2023-09-18T15:23:24;28.56;52.27
75010;DHT22;63564;46.840;18.336;2023-09-18T15:26:25;28.31;51.78
75010;DHT22;63564;46.840;18.336;2023-09-18T15:29:27;28.22;52.09
75010;DHT22;63564;46.840;18.336;2023-09-18T15:32:32;28.08;53.00
75010;DHT22;63564;46.840;18.336;2023-09-18T15:35:45;27.90;52.80
75010;DHT22;63564;46.840;18.336;2023-09-18T15:38:46;27.98;53.08
75010;DHT22;63564;46.840;18.336;2023-09-18T15:41:47;27.90;52.98
75010;DHT22;63564;46.840;18.336;2023-09-18T15:44:48;27.93;53.24
75010;DHT22;63564;46.840;18.336;2023-09-18T15:47:49;27.89;53.44
75010;DHT22;63564;46.840;18.336;2023-09-18T15:50:50;27.82;52.91
75010;DHT22;63564;46.840;18.336;2023-09-18T15:53:50;27.64;54.08
75010;DHT22;63564;46.840;18.336;2023-09-18T15:56:51;27.70;53.98
75010;DHT22;63564;46.840;18.336;2023-09-18T15:59:52;27.64;53.57
75010;DHT22;63564;46.840;18.336;2023-09-18T16:02:53;27.55;54.11
75010;DHT22;63564;46.840;18.336;2023-09-18T16:05:54;27.59;53.88
75010;DHT22;63564;46.840;18.336;2023-09-18T16:08:55;27.67;53.47
75010;DHT22;63564;46.840;18.336;2023-09-18T16:12:00;27.55;53.80
75010;DHT22;63564;46.840;18.336;2023-09-18T16:15:01;27.46;54.11
75010;DHT22;63564;46.840;18.336;2023-09-18T16:18:03;27.43;54.34
75010;DHT22;63564;46.840;18.336;2023-09-18T16:21:04;27.46;54.09
75010;DHT22;63564;46.840;18.336;2023-09-18T16:24:06;27.52;53.87
75010;DHT22;63564;46.840;18.336;2023-09-18T16:27:11;27.43;54.30
75010;DHT22;63564;46.840;18.336;2023-09-18T16:30:14;27.32;54.29
75010;DHT22;63564;46.840;18.336;2023-09-18T16:33:14;27.34;54.30
75010;DHT22;63564;46.840;18.336;2023-09-18T16:36:15;27.28;54.55
75010;DHT22;63564;46.840;18.336;2023-09-18T16:39:16;27.26;54.57
75010;DHT22;63564;46.840;18.336;2023-09-18T16:42:17;27.28;54.59
75010;DHT22;63564;46.840;18.336;2023-09-18T16:45:17;27.24;54.63
75010;DHT22;63564;46.840;18.336;2023-09-18T16:48:18;27.09;55.07
75010;DHT22;63564;46.840;18.336;2023-09-18T16:51:19;26.94;55.52
75010;DHT22;63564;46.840;18.336;2023-09-18T16:54:20;27.01;55.38
75010;DHT22;63564;46.840;18.336;2023-09-18T16:57:24;26.97;55.49
75010;DHT22;63564;46.840;18.336;2023-09-18T17:00:24;26.95;55.62
75010;DHT22;63564;46.840;18.336;2023-09-18T17:03:25;26.83;56.03
75010;DHT22;63564;46.840;18.336;2023-09-18T17:06:26;26.69;56.54
75010;DHT22;63564;46.840;18.336;2023-09-18T17:09:28;26.57;56.59
75010;DHT22;63564;46.840;18.336;2023-09-18T17:12:28;26.61;56.36
75010;DHT22;63564;46.840;18.336;2023-09-18T17:15:32;26.59;56.59
75010;DHT22;63564;46.840;18.336;2023-09-18T17:18:34;26.42;57.01
75010;DHT22;63564;46.840;18.336;2023-09-18T17:21:39;26.44;57.14
75010;DHT22;63564;46.840;18.336;2023-09-18T17:24:39;26.43;56.97
75010;DHT22;63564;46.840;18.336;2023-09-18T17:27:44;26.26;57.62
75010;DHT22;63564;46.840;18.336;2023-09-18T17:30:46;26.13;57.95
75010;DHT22;63564;46.840;18.336;2023-09-18T17:33:46;26.01;58.23
75010;DHT22;63564;46.840;18.336;2023-09-18T17:36:48;26.05;58.14
75010;DHT22;63564;46.840;18.336;2023-09-18T17:39:49;25.88;58.91
75010;DHT22;63564;46.840;18.336;2023-09-18T17:42:51;25.74;59.29
75010;DHT22;63564;46.840;18.336;2023-09-18T17:45:53;25.81;58.54
75010;DHT22;63564;46.840;18.336;2023-09-18T17:48:53;25.77;59.09
75010;DHT22;63564;46.840;18.336;2023-09-18T17:51:54;25.70;59.02
75010;DHT22;63564;46.840;18.336;2023-09-18T17:54:55;25.68;59.03
75010;DHT22;63564;46.840;18.336;2023-09-18T17:57:58;25.66;59.05
75010;DHT22;63564;46.840;18.336;2023-09-18T18:00:59;25.58;59.17
75010;DHT22;63564;46.840;18.336;2023-09-18T18:04:01;25.50;59.49
75010;DHT22;63564;46.840;18.336;2023-09-18T18:07:01;25.43;59.68
75010;DHT22;63564;46.840;18.336;2023-09-18T18:10:04;25.36;59.92
75010;DHT22;63564;46.840;18.336;2023-09-18T18:13:05;25.27;60.07
75010;DHT22;63564;46.840;18.336;2023-09-18T18:16:05;25.12;60.91
75010;DHT22;63564;46.840;18.336;2023-09-18T18:19:12;24.98;61.54
75010;DHT22;63564;46.840;18.336;2023-09-18T18:22:13;24.91;61.40
75010;DHT22;63564;46.840;18.336;2023-09-18T18:25:14;24.88;61.38
75010;DHT22;63564;46.840;18.336;2023-09-18T18:28:16;24.75;61.63
75010;DHT22;63564;46.840;18.336;2023-09-18T18:31:17;24.69;61.82
75010;DHT22;63564;46.840;18.336;2023-09-18T18:34:18;24.58;62.55
75010;DHT22;63564;46.840;18.336;2023-09-18T18:37:19;24.44;62.67
75010;DHT22;63564;46.840;18.336;2023-09-18T18:40:20;24.38;62.89
75010;DHT22;63564;46.840;18.336;2023-09-18T18:43:23;24.33;63.08
75010;DHT22;63564;46.840;18.336;2023-09-18T18:46:27;24.28;63.24
75010;DHT22;63564;46.840;18.336;2023-09-18T18:49:28;24.38;63.16
75010;DHT22;63564;46.840;18.336;2023-09-18T18:52:29;24.37;63.17
75010;DHT22;63564;46.840;18.336;2023-09-18T18:55:30;24.30;63.25
75010;DHT22;63564;46.840;18.336;2023-09-18T18:58:32;24.24;63.29
75010;DHT22;63564;46.840;18.336;2023-09-18T19:01:35;24.24;63.24
75010;DHT22;63564;46.840;18.336;2023-09-18T19:04:36;24.18;63.49
75010;DHT22;63564;46.840;18.336;2023-09-18T19:07:37;24.23;63.76
75010;DHT22;63564;46.840;18.336;2023-09-18T19:10:40;24.24;63.36